Time;durP1;ratioP1;P1;durP2;ratioP2;P2;SDS_P1;SDS_P2;PMS_P1;PMS_P2;Temp;Humidity;BMP_temperature;BMP_pressure;BME280_temperature;BME280_humidity;BME280_pressure;Samples;Min_cycle;Max_cycle;Signal;HPM_P1;HPM_P2
2022/12/25 00:01:09;;;;;;;13.93;2.88;;;7.90;81.00;;;;;;5052775;28;20025;-59
2022/12/25 00:03:35;;;;;;;9.32;3.20;;;7.90;81.10;;;;;;5050475;28;20397;-60
2022/12/25 00:06:01;;;;;;;10.18;2.90;;;8.00;81.30;;;;;;5047403;28;20078;-60
2022/12/25 00:08:27;;;;;;;9.10;2.33;;;8.00;81.90;;;;;;5048758;28;20033;-59
2022/12/25 00:10:58;;;;;;;4.60;2.92;;;8.10;81.60;;;;;;5048579;28;20579;-60
2022/12/25 00:13:23;;;;;;;4.80;3.25;;;8.20;81.70;;;;;;5048611;28;20032;-60
2022/12/25 00:15:49;;;;;;;3.15;1.77;;;8.30;81.80;;;;;;5052092;28;20036;-59
2022/12/25 00:18:14;;;;;;;5.45;2.45;;;8.40;81.80;;;;;;5052159;28;20024;-60
2022/12/25 00:20:40;;;;;;;16.33;2.25;;;8.40;81.80;;;;;;5051203;28;20025;-59
2022/12/25 00:23:06;;;;;;;2.92;1.85;;;8.50;81.90;;;;;;5051864;28;20025;-59
2022/12/25 00:25:31;;;;;;;5.20;2.08;;;8.60;81.90;;;;;;5047511;28;20025;-59
2022/12/25 00:27:57;;;;;;;4.22;1.55;;;8.70;82.00;;;;;;5038915;28;20383;-60
2022/12/25 00:30:23;;;;;;;6.75;2.58;;;8.80;81.90;;;;;;5040674;28;20034;-59
2022/12/25 00:32:48;;;;;;;5.35;1.98;;;8.80;82.00;;;;;;5053181;28;20037;-59
2022/12/25 00:35:14;;;;;;;4.28;2.45;;;8.90;82.10;;;;;;5051863;28;20029;-60
2022/12/25 00:37:40;;;;;;;4.25;2.50;;;8.90;82.10;;;;;;5052591;28;20025;-58
2022/12/25 00:40:06;;;;;;;8.20;2.75;;;9.00;82.20;;;;;;5053262;28;20033;-58
2022/12/25 00:42:32;;;;;;;7.85;2.50;;;9.10;82.20;;;;;;5050504;28;20033;-60
2022/12/25 00:45:00;;;;;;;6.97;2.08;;;9.10;82.20;;;;;;5051603;28;20086;-60
2022/12/25 00:47:25;;;;;;;2.85;2.15;;;9.20;82.40;;;;;;5051483;28;20053;-59
2022/12/25 00:49:51;;;;;;;6.88;1.90;;;9.20;82.50;;;;;;5051950;28;20083;-60
2022/12/25 00:52:17;;;;;;;5.07;1.67;;;9.20;82.50;;;;;;5058198;28;20035;-60
2022/12/25 00:54:43;;;;;;;2.75;1.85;;;9.20;82.50;;;;;;5052123;28;20119;-59
2022/12/25 00:57:08;;;;;;;3.25;1.95;;;9.30;82.60;;;;;;5051195;28;20032;-59
2022/12/25 00:59:34;;;;;;;3.53;1.67;;;9.30;82.60;;;;;;5051969;28;20045;-59
2022/12/25 01:02:22;;;;;;;5.32;1.77;;;9.40;82.60;;;;;;5050377;28;20107;-58
2022/12/25 01:04:45;;;;;;;7.70;2.47;;;9.50;82.60;;;;;;5052003;28;20041;-59
2022/12/25 01:07:11;;;;;;;3.53;2.13;;;9.60;82.70;;;;;;5049935;28;20033;-59
2022/12/25 01:10:23;;;;;;;3.30;1.80;;;9.70;82.50;;;;;;5044806;28;20369;-59
2022/12/25 01:12:23;;;;;;;4.55;1.77;;;9.70;82.50;;;;;;5045036;28;20041;-60
2022/12/25 01:14:49;;;;;;;3.22;1.90;;;9.80;82.40;;;;;;5047657;28;20037;-60
2022/12/25 01:17:15;;;;;;;7.55;2.90;;;9.90;82.30;;;;;;5039142;28;20523;-59
2022/12/25 01:19:40;;;;;;;7.20;1.55;;;9.90;82.30;;;;;;5034722;28;20038;-60
2022/12/25 01:22:06;;;;;;;6.82;1.95;;;10.00;82.70;;;;;;5033742;28;20029;-59
2022/12/25 01:24:31;;;;;;;2.63;1.85;;;10.00;82.60;;;;;;5037597;28;20580;-58
2022/12/25 01:26:57;;;;;;;9.50;2.15;;;10.00;82.60;;;;;;5032140;28;20056;-59
2022/12/25 01:29:23;;;;;;;2.40;1.50;;;10.00;82.60;;;;;;5031798;28;20025;-58
2022/12/25 01:31:48;;;;;;;3.95;1.92;;;10.00;82.60;;;;;;5037840;28;20041;-59
2022/12/25 01:34:14;;;;;;;2.67;1.55;;;10.10;82.80;;;;;;5058195;28;20536;-59
2022/12/25 01:36:39;;;;;;;1.42;1.15;;;10.10;82.90;;;;;;5058704;28;20094;-60
2022/12/25 01:39:05;;;;;;;2.90;1.17;;;10.10;82.90;;;;;;5054504;28;20123;-60
2022/12/25 01:41:31;;;;;;;4.20;1.75;;;10.20;83.00;;;;;;5046693;28;20029;-60
2022/12/25 01:44:15;;;;;;;9.88;2.50;;;10.20;83.50;;;;;;5047352;28;20029;-59
2022/12/25 01:46:42;;;;;;;1.58;1.30;;;10.20;83.40;;;;;;5050003;28;20447;-60
2022/12/25 01:49:12;;;;;;;2.08;1.33;;;10.20;83.80;;;;;;5054749;28;20056;-60
2022/12/25 01:51:49;;;;;;;12.70;2.53;;;10.20;83.50;;;;;;5050223;28;20029;-59
2022/12/25 01:54:19;;;;;;;2.42;1.63;;;10.30;84.00;;;;;;5048354;28;20030;-59
2022/12/25 01:56:46;;;;;;;8.18;1.73;;;10.30;84.10;;;;;;5048305;28;20033;-59
2022/12/25 01:59:18;;;;;;;3.28;2.00;;;10.30;84.10;;;;;;5049388;28;20037;-60
2022/12/25 02:01:44;;;;;;;3.97;1.45;;;10.30;84.00;;;;;;5050517;28;20025;-60
2022/12/25 02:04:37;;;;;;;5.40;1.50;;;10.30;84.10;;;;;;5050442;28;20025;-60
2022/12/25 02:07:13;;;;;;;2.80;1.75;;;10.40;84.10;;;;;;5053984;28;20036;-59
2022/12/25 02:09:39;;;;;;;2.38;1.40;;;10.40;84.10;;;;;;5050873;28;20391;-59
2022/12/25 02:12:06;;;;;;;1.52;1.08;;;10.40;84.10;;;;;;5049502;28;20036;-59
2022/12/25 02:14:35;;;;;;;2.70;1.30;;;10.40;84.00;;;;;;5055368;28;20039;-59
2022/12/25 02:17:15;;;;;;;2.22;1.13;;;10.30;84.10;;;;;;5049644;28;20091;-59
2022/12/25 02:19:53;;;;;;;2.58;1.58;;;10.40;84.20;;;;;;5054517;28;20414;-59
2022/12/25 02:22:34;;;;;;;2.35;1.48;;;10.40;84.20;;;;;;5050678;28;20035;-58
2022/12/25 02:25:21;;;;;;;2.17;1.27;;;10.40;84.30;;;;;;5052704;28;20384;-58
2022/12/25 02:28:05;;;;;;;2.95;1.38;;;10.40;84.20;;;;;;5039980;28;20548;-59
2022/12/25 02:30:36;;;;;;;2.17;1.30;;;10.40;84.30;;;;;;5049118;28;20044;-59
2022/12/25 02:35:55;;;;;;;2.03;1.48;;;10.40;84.50;;;;;;5054209;28;20044;-59
2022/12/25 02:38:31;;;;;;;3.08;1.17;;;10.40;84.50;;;;;;5046237;28;20130;-59
2022/12/25 02:41:02;;;;;;;2.88;1.58;;;10.40;84.50;;;;;;5044785;28;20017;-59
2022/12/25 03:06:43;;;;;;;3.20;1.60;;;10.40;85.10;;;;;;5049360;28;20525;-59
2022/12/25 03:12:21;;;;;;;1.95;1.27;;;10.50;85.10;;;;;;5050031;28;20570;-59
2022/12/25 03:17:32;;;;;;;1.27;1.13;;;10.50;85.00;;;;;;5047961;28;20068;-59
2022/12/25 03:28:13;;;;;;;1.70;1.20;;;10.50;85.10;;;;;;5039148;28;20099;-58
2022/12/25 03:31:10;;;;;;;2.40;1.15;;;10.50;85.20;;;;;;5045479;28;20663;-59
2022/12/25 03:35:21;;;;;;;2.17;1.63;;;10.50;85.20;;;;;;5045314;28;20017;-59
2022/12/25 04:36:29;;;;;;;2.85;1.77;;;10.40;86.00;;;;;;5045925;28;20602;-60
2022/12/25 04:38:54;;;;;;;3.08;1.27;;;10.40;86.00;;;;;;5054454;28;20104;-59
2022/12/25 04:41:20;;;;;;;2.47;0.73;;;10.40;86.10;;;;;;5033765;28;20075;-60
2022/12/25 04:43:46;;;;;;;3.60;1.40;;;10.40;86.10;;;;;;5051328;28;20469;-60
2022/12/25 04:46:11;;;;;;;3.30;1.30;;;10.40;86.10;;;;;;5050399;28;20439;-59
2022/12/25 04:48:37;;;;;;;1.92;1.13;;;10.40;86.10;;;;;;5051495;28;20047;-60
2022/12/25 04:51:15;;;;;;;1.73;1.45;;;10.40;86.20;;;;;;5055844;28;20090;-60
2022/12/25 04:53:41;;;;;;;1.92;1.23;;;10.40;86.10;;;;;;5054255;28;20491;-59
2022/12/25 04:56:06;;;;;;;2.13;1.58;;;10.40;86.20;;;;;;5055001;28;20136;-60
2022/12/25 04:58:32;;;;;;;1.25;0.93;;;10.40;86.20;;;;;;5051789;28;20099;-60
2022/12/25 05:01:00;;;;;;;2.15;1.20;;;10.50;86.20;;;;;;5053948;28;20498;-59
2022/12/25 05:03:26;;;;;;;3.25;1.95;;;10.40;86.20;;;;;;5052021;28;20587;-59
2022/12/25 05:05:52;;;;;;;1.42;1.00;;;10.40;86.20;;;;;;5050956;28;20036;-59
2022/12/25 05:08:17;;;;;;;1.70;1.20;;;10.40;86.20;;;;;;5041528;28;20491;-59
2022/12/25 05:10:44;;;;;;;2.72;1.23;;;10.40;86.20;;;;;;5049321;28;20033;-59
2022/12/25 05:13:09;;;;;;;1.25;1.00;;;10.40;86.20;;;;;;5050407;28;20111;-60
2022/12/25 05:15:39;;;;;;;3.00;1.30;;;10.40;86.20;;;;;;5049566;28;20112;-60
2022/12/25 05:18:05;;;;;;;2.92;1.50;;;10.40;86.20;;;;;;5051668;28;20119;-60
2022/12/25 05:20:30;;;;;;;1.48;1.13;;;10.30;86.20;;;;;;5050702;28;20129;-60
2022/12/25 05:22:56;;;;;;;1.20;1.10;;;10.30;86.40;;;;;;5046419;28;20436;-59
2022/12/25 05:25:22;;;;;;;1.88;1.38;;;10.20;86.30;;;;;;5053010;28;20036;-60
2022/12/25 05:27:47;;;;;;;1.70;1.08;;;10.20;86.30;;;;;;5051421;28;20026;-59
2022/12/25 05:30:13;;;;;;;2.10;1.15;;;10.20;86.30;;;;;;5058890;28;20025;-60
2022/12/25 05:32:39;;;;;;;1.58;0.90;;;10.10;86.30;;;;;;5054764;28;20032;-59
2022/12/25 05:35:07;;;;;;;3.25;1.50;;;10.10;86.40;;;;;;5050180;28;20056;-60
2022/12/25 05:37:35;;;;;;;4.53;1.52;;;10.00;86.30;;;;;;5049988;28;20036;-60
2022/12/25 05:40:02;;;;;;;3.38;1.40;;;9.90;86.30;;;;;;5055790;28;20043;-60
2022/12/25 05:42:28;;;;;;;2.80;1.58;;;9.90;86.40;;;;;;5053717;28;20020;-60
2022/12/25 05:44:54;;;;;;;3.00;1.13;;;9.90;86.30;;;;;;5049190;28;20036;-60
2022/12/25 05:47:19;;;;;;;2.80;1.50;;;9.80;86.30;;;;;;5051242;28;20438;-60
2022/12/25 05:49:45;;;;;;;2.88;1.50;;;9.80;86.30;;;;;;5053413;28;20498;-60
2022/12/25 05:52:11;;;;;;;3.13;1.20;;;9.70;86.20;;;;;;5065517;28;20055;-60
2022/12/25 05:54:37;;;;;;;1.23;1.13;;;9.70;86.30;;;;;;5058603;28;20570;-59
2022/12/25 05:57:03;;;;;;;2.10;1.35;;;9.60;86.20;;;;;;5053546;28;20065;-59
2022/12/25 05:59:32;;;;;;;2.25;1.45;;;9.70;86.40;;;;;;5052032;28;20040;-59
2022/12/25 06:01:58;;;;;;;3.50;1.77;;;9.60;86.30;;;;;;5054475;28;20400;-60
2022/12/25 06:04:25;;;;;;;3.92;1.85;;;9.70;86.40;;;;;;5050476;28;20365;-59
2022/12/25 06:06:51;;;;;;;1.30;1.20;;;9.60;86.20;;;;;;5061414;28;20071;-60
2022/12/25 06:09:17;;;;;;;3.25;1.40;;;9.60;86.20;;;;;;5052273;28;20025;-60
2022/12/25 06:11:42;;;;;;;1.92;1.30;;;9.70;86.20;;;;;;5053510;28;20025;-60
2022/12/25 06:14:13;;;;;;;3.20;1.48;;;9.70;86.20;;;;;;5048830;28;20577;-60
2022/12/25 06:16:39;;;;;;;3.97;1.55;;;9.60;86.10;;;;;;5050795;28;20036;-58
2022/12/25 06:19:05;;;;;;;0.95;0.90;;;9.70;86.20;;;;;;5050474;28;20472;-58
2022/12/25 06:21:31;;;;;;;1.70;1.23;;;9.70;86.20;;;;;;5055289;28;20419;-58
2022/12/25 06:23:58;;;;;;;2.15;0.98;;;9.60;86.20;;;;;;5049191;28;20515;-58
2022/12/25 06:26:24;;;;;;;3.13;1.83;;;9.60;86.10;;;;;;5046248;28;20037;-59
2022/12/25 06:28:50;;;;;;;1.27;1.10;;;9.60;86.10;;;;;;5046636;28;20547;-59
2022/12/25 06:31:21;;;;;;;1.88;1.10;;;9.70;86.20;;;;;;5046977;28;20360;-59
2022/12/25 06:33:48;;;;;;;2.33;1.58;;;9.70;86.10;;;;;;5046443;28;20403;-59
2022/12/25 06:36:16;;;;;;;4.03;1.55;;;9.60;86.00;;;;;;5051623;28;20036;-59
2022/12/25 06:38:43;;;;;;;1.08;0.93;;;9.70;86.10;;;;;;5048686;28;20029;-59
2022/12/25 06:41:15;;;;;;;1.73;1.30;;;9.70;86.10;;;;;;5052129;28;20025;-58
2022/12/25 06:43:40;;;;;;;1.40;1.13;;;9.70;86.10;;;;;;5045912;28;20044;-59
2022/12/25 06:46:11;;;;;;;2.05;1.00;;;9.70;86.10;;;;;;5050284;28;20433;-58
2022/12/25 06:48:39;;;;;;;1.92;1.38;;;9.80;86.20;;;;;;5049535;28;20036;-59
2022/12/25 06:51:05;;;;;;;3.47;1.40;;;9.70;86.20;;;;;;5044817;28;20039;-59
2022/12/25 06:53:31;;;;;;;1.50;0.90;;;9.70;86.30;;;;;;5049184;28;20028;-59
2022/12/25 06:56:04;;;;;;;2.00;1.40;;;9.80;86.40;;;;;;5046732;28;20036;-59
2022/12/25 06:58:30;;;;;;;2.40;1.67;;;9.80;86.40;;;;;;5048985;28;20945;-59
2022/12/25 07:00:56;;;;;;;1.35;1.15;;;9.80;86.30;;;;;;5044712;28;20037;-59
2022/12/25 07:03:23;;;;;;;1.23;0.90;;;9.90;86.30;;;;;;5048816;28;20025;-58
2022/12/25 07:05:48;;;;;;;2.17;1.52;;;9.90;86.40;;;;;;5048636;28;20542;-58
2022/12/25 07:08:14;;;;;;;2.28;1.73;;;9.90;87.00;;;;;;5044858;28;20029;-58
2022/12/25 07:10:40;;;;;;;2.97;1.95;;;10.00;86.40;;;;;;5045980;28;20041;-59
2022/12/25 07:13:05;;;;;;;2.95;1.80;;;10.00;86.40;;;;;;5049470;28;20139;-59
2022/12/25 07:15:31;;;;;;;3.75;2.10;;;10.00;86.40;;;;;;5052686;28;20037;-59
2022/12/25 07:17:57;;;;;;;3.63;1.65;;;10.00;86.40;;;;;;5048323;28;20664;-59
2022/12/25 07:20:22;;;;;;;2.42;1.58;;;10.10;86.50;;;;;;5048763;28;20025;-59
2022/12/25 07:22:48;;;;;;;2.55;1.40;;;10.10;86.50;;;;;;5048106;28;20035;-59
2022/12/25 07:25:14;;;;;;;1.33;1.10;;;10.10;86.40;;;;;;5051051;28;20086;-58
2022/12/25 07:27:40;;;;;;;2.58;1.42;;;10.20;86.40;;;;;;5036720;28;20387;-58
2022/12/25 07:30:06;;;;;;;1.55;1.10;;;10.20;86.40;;;;;;5051788;28;20110;-59
2022/12/25 07:32:32;;;;;;;3.85;1.15;;;10.20;86.40;;;;;;5050388;28;20883;-59
2022/12/25 07:34:57;;;;;;;1.20;1.10;;;10.20;86.30;;;;;;5051237;28;20068;-59
2022/12/25 07:37:23;;;;;;;1.98;1.55;;;10.20;86.30;;;;;;5050337;28;20068;-59
2022/12/25 07:39:49;;;;;;;2.25;1.60;;;10.20;86.30;;;;;;5044957;28;20033;-60
2022/12/25 07:42:15;;;;;;;6.22;1.77;;;10.20;86.30;;;;;;5048792;28;20075;-58
2022/12/25 07:44:40;;;;;;;0.80;0.77;;;10.30;86.30;;;;;;5048879;28;20032;-58
2022/12/25 07:47:06;;;;;;;1.73;1.60;;;10.20;86.30;;;;;;5046607;28;20402;-59
2022/12/25 07:49:32;;;;;;;3.75;1.35;;;10.30;86.40;;;;;;5046639;28;20086;-58
2022/12/25 07:51:57;;;;;;;2.00;1.50;;;10.30;86.40;;;;;;5050317;28;20028;-59
2022/12/25 07:54:23;;;;;;;1.95;1.08;;;10.30;86.40;;;;;;5050960;28;20083;-59
2022/12/25 07:56:52;;;;;;;3.53;1.30;;;10.30;86.30;;;;;;5047595;28;20028;-60
2022/12/25 07:59:18;;;;;;;2.72;1.58;;;10.30;86.40;;;;;;5048125;28;20072;-59
2022/12/25 08:01:44;;;;;;;5.95;1.73;;;10.30;86.40;;;;;;5055844;28;20033;-58
2022/12/25 08:04:10;;;;;;;4.05;1.27;;;10.30;86.40;;;;;;5047790;28;20586;-58
2022/12/25 08:06:36;;;;;;;1.33;1.23;;;10.30;86.40;;;;;;5046321;28;20029;-59
2022/12/25 08:09:05;;;;;;;3.55;1.65;;;10.30;86.40;;;;;;5046422;28;20037;-58
2022/12/25 08:11:31;;;;;;;1.67;1.23;;;10.30;86.40;;;;;;5050501;28;20037;-59
2022/12/25 08:13:57;;;;;;;2.67;1.80;;;10.30;86.40;;;;;;5049452;28;20024;-59
2022/12/25 08:16:23;;;;;;;2.35;1.55;;;10.30;86.40;;;;;;5048486;28;20032;-58
2022/12/25 08:18:48;;;;;;;1.83;1.15;;;10.30;86.40;;;;;;5050404;28;20123;-58
2022/12/25 08:21:14;;;;;;;1.40;1.05;;;10.30;86.40;;;;;;5044715;28;20053;-58
2022/12/25 08:23:43;;;;;;;1.52;1.10;;;10.30;86.40;;;;;;5050140;28;20029;-58
2022/12/25 08:26:12;;;;;;;1.70;1.40;;;10.30;86.40;;;;;;5046749;28;20033;-59
2022/12/25 08:28:39;;;;;;;1.17;0.80;;;10.30;86.50;;;;;;5046776;28;20033;-59
2022/12/25 08:31:11;;;;;;;2.45;1.58;;;10.30;86.60;;;;;;5049986;28;20028;-59
2022/12/25 08:33:37;;;;;;;2.05;1.48;;;10.30;86.60;;;;;;5049115;28;20033;-59
2022/12/25 08:36:08;;;;;;;2.92;1.40;;;10.30;86.50;;;;;;5047475;28;20120;-59
2022/12/25 08:38:35;;;;;;;1.70;1.27;;;10.40;86.50;;;;;;5045535;28;20545;-59
2022/12/25 08:41:01;;;;;;;1.75;1.30;;;10.40;86.50;;;;;;5049212;28;20479;-59
2022/12/25 08:43:26;;;;;;;1.13;0.88;;;10.40;86.50;;;;;;5046716;28;20021;-57
2022/12/25 08:45:52;;;;;;;1.75;1.17;;;10.40;86.50;;;;;;5046147;28;20029;-60
2022/12/25 08:48:18;;;;;;;1.58;1.02;;;10.40;86.60;;;;;;5048064;28;20025;-60
2022/12/25 08:50:48;;;;;;;1.50;1.30;;;10.40;86.50;;;;;;5050179;28;20032;-59
2022/12/25 08:53:14;;;;;;;1.02;0.88;;;10.40;86.50;;;;;;5049750;28;20353;-59
2022/12/25 08:55:40;;;;;;;1.50;1.00;;;10.50;86.50;;;;;;5034192;28;20045;-59
2022/12/25 08:58:06;;;;;;;2.63;1.25;;;10.50;86.40;;;;;;5044025;28;20049;-59
2022/12/25 09:00:31;;;;;;;1.95;1.25;;;10.50;86.40;;;;;;5053143;28;20092;-58
2022/12/25 09:02:57;;;;;;;0.88;0.75;;;10.50;86.40;;;;;;5032102;28;20520;-60
2022/12/25 09:05:23;;;;;;;1.60;1.25;;;10.60;86.50;;;;;;5050694;28;20036;-61
2022/12/25 09:07:48;;;;;;;2.35;1.08;;;10.50;86.40;;;;;;5042947;28;20037;-60
2022/12/25 09:10:14;;;;;;;2.50;1.88;;;10.60;86.40;;;;;;5050628;28;20411;-59
2022/12/25 09:12:40;;;;;;;1.70;1.55;;;10.60;86.50;;;;;;5039921;28;20041;-59
2022/12/25 09:15:06;;;;;;;1.35;1.25;;;10.60;86.50;;;;;;5055389;28;20524;-59
2022/12/25 09:17:32;;;;;;;2.25;1.45;;;10.60;86.50;;;;;;5042612;28;20063;-59
2022/12/25 09:19:58;;;;;;;3.35;1.75;;;10.60;86.50;;;;;;5057148;28;20063;-59
2022/12/25 09:22:23;;;;;;;2.90;1.85;;;10.60;86.50;;;;;;5047468;28;20108;-59
2022/12/25 09:24:49;;;;;;;2.65;1.48;;;10.60;86.60;;;;;;5034326;28;20033;-59
2022/12/25 09:27:15;;;;;;;1.95;1.42;;;10.60;86.60;;;;;;5037235;28;20518;-60
2022/12/25 09:29:40;;;;;;;2.03;1.63;;;10.60;86.50;;;;;;5048551;28;20496;-59
2022/12/25 09:32:07;;;;;;;3.05;1.60;;;10.60;86.50;;;;;;5045626;28;20025;-59
2022/12/25 09:34:33;;;;;;;3.65;1.65;;;10.70;86.50;;;;;;5046909;28;20174;-59
2022/12/25 09:36:59;;;;;;;2.80;1.70;;;10.70;86.50;;;;;;5045633;28;20068;-59
2022/12/25 09:39:24;;;;;;;3.63;1.65;;;10.60;86.60;;;;;;5046970;28;20036;-59
2022/12/25 09:41:58;;;;;;;3.15;1.80;;;10.70;86.60;;;;;;5047096;28;20115;-59
2022/12/25 09:44:39;;;;;;;2.83;1.63;;;10.70;86.50;;;;;;5044622;28;20112;-59
2022/12/25 09:47:10;;;;;;;1.92;1.48;;;10.70;86.50;;;;;;5051716;28;20384;-59
2022/12/25 09:49:36;;;;;;;3.00;1.83;;;10.70;86.60;;;;;;5042336;28;20022;-59
2022/12/25 09:52:07;;;;;;;3.47;2.22;;;10.70;86.60;;;;;;5050033;28;20294;-59
2022/12/25 09:54:58;;;;;;;9.43;2.22;;;10.70;86.60;;;;;;5045818;28;20476;-58
2022/12/25 09:57:25;;;;;;;3.63;2.15;;;10.70;86.70;;;;;;5048162;28;20037;-58
2022/12/25 09:59:53;;;;;;;2.60;2.03;;;10.60;86.70;;;;;;5042023;28;20057;-58
2022/12/25 10:02:40;;;;;;;3.78;2.15;;;10.60;86.70;;;;;;5041391;28;20473;-60
2022/12/25 10:05:16;;;;;;;3.95;1.80;;;10.70;86.70;;;;;;5040043;28;20021;-60
2022/12/25 10:08:34;;;;;;;3.05;1.83;;;10.70;86.80;;;;;;5046800;28;20439;-59
2022/12/25 10:11:02;;;;;;;3.35;2.15;;;10.70;86.60;;;;;;5013520;28;20178;-60
2022/12/25 10:13:58;;;;;;;4.47;1.70;;;10.70;86.80;;;;;;5022790;28;20030;-60
2022/12/25 10:16:42;;;;;;;1.77;1.55;;;10.80;86.60;;;;;;5044961;28;20052;-60
2022/12/25 10:19:28;;;;;;;2.75;1.83;;;10.80;86.70;;;;;;5037331;28;20116;-60
2022/12/25 10:21:59;;;;;;;2.80;2.08;;;10.80;86.60;;;;;;5035853;28;20367;-58
2022/12/25 10:24:25;;;;;;;5.13;2.53;;;10.80;86.70;;;;;;5032262;28;20022;-60
2022/12/25 10:26:53;;;;;;;4.68;2.58;;;10.80;86.60;;;;;;5031257;28;20369;-61
2022/12/25 10:29:18;;;;;;;3.03;1.73;;;10.90;86.60;;;;;;5038847;28;20017;-61
2022/12/25 10:31:52;;;;;;;1.55;1.45;;;10.80;86.60;;;;;;5035194;28;20037;-60
2022/12/25 10:34:18;;;;;;;2.40;1.52;;;10.90;86.70;;;;;;5045571;28;20071;-62
2022/12/25 10:36:45;;;;;;;1.67;1.48;;;10.90;86.70;;;;;;5040904;28;20473;-62
2022/12/25 10:39:22;;;;;;;1.65;1.25;;;10.90;86.70;;;;;;5046918;28;20395;-58
2022/12/25 10:42:03;;;;;;;1.25;1.13;;;10.90;86.70;;;;;;5048273;28;20032;-62
2022/12/25 10:44:29;;;;;;;1.58;1.48;;;10.90;86.70;;;;;;5045691;28;20748;-59
2022/12/25 10:46:59;;;;;;;3.33;2.15;;;10.90;86.70;;;;;;5045172;28;20060;-59
2022/12/25 10:49:30;;;;;;;4.90;3.10;;;10.90;86.60;;;;;;5041398;28;20033;-58
2022/12/25 10:51:56;;;;;;;4.50;2.97;;;11.00;86.70;;;;;;5040749;28;20029;-59
2022/12/25 10:54:28;;;;;;;3.90;2.33;;;10.90;86.70;;;;;;5044521;28;20043;-64
2022/12/25 10:57:03;;;;;;;5.85;2.25;;;11.00;86.70;;;;;;5044309;28;20388;-60
2022/12/25 10:59:34;;;;;;;5.70;2.72;;;11.00;86.70;;;;;;5044704;28;20523;-58
2022/12/25 11:02:33;;;;;;;2.85;2.25;;;11.00;86.70;;;;;;5036278;28;20033;-59
2022/12/25 11:05:13;;;;;;;3.67;2.42;;;11.00;86.60;;;;;;5036380;28;20503;-65
2022/12/25 11:07:54;;;;;;;3.08;2.20;;;11.00;86.80;;;;;;5038683;28;20021;-60
2022/12/25 11:10:20;;;;;;;3.00;2.03;;;11.00;86.80;;;;;;5041881;28;20503;-59
2022/12/25 11:12:46;;;;;;;2.42;1.92;;;11.00;86.80;;;;;;5035822;28;20036;-59
2022/12/25 11:15:30;;;;;;;2.03;1.65;;;11.00;86.80;;;;;;5042948;28;20510;-59
2022/12/25 11:17:56;;;;;;;5.78;2.55;;;11.00;86.70;;;;;;5044005;28;20047;-59
2022/12/25 11:20:23;;;;;;;3.78;2.38;;;11.00;86.80;;;;;;5036811;28;20060;-59
2022/12/25 11:22:49;;;;;;;4.13;3.20;;;11.00;86.80;;;;;;5032592;28;20033;-59
2022/12/25 11:25:25;;;;;;;4.75;2.65;;;11.00;86.80;;;;;;5034501;28;20029;-58
2022/12/25 11:28:03;;;;;;;2.75;2.35;;;11.00;86.80;;;;;;5036204;28;20063;-59
2022/12/25 11:30:32;;;;;;;3.03;1.63;;;11.00;86.90;;;;;;5040445;28;20220;-59
2022/12/25 11:33:04;;;;;;;4.18;1.83;;;11.00;87.00;;;;;;5039798;28;20029;-59
2022/12/25 11:35:34;;;;;;;4.13;2.40;;;11.00;86.90;;;;;;5045109;28;20492;-60
2022/12/25 11:37:59;;;;;;;2.17;1.60;;;11.00;86.90;;;;;;5043691;28;20025;-59
2022/12/25 11:41:01;;;;;;;3.72;1.67;;;11.10;86.90;;;;;;5044333;28;20040;-59
2022/12/25 11:43:38;;;;;;;2.42;1.50;;;11.10;86.90;;;;;;5023473;28;20040;-59
2022/12/25 11:46:10;;;;;;;2.03;1.30;;;11.10;86.90;;;;;;5049637;28;20032;-60
2022/12/25 11:48:48;;;;;;;2.35;1.83;;;11.10;86.90;;;;;;5046234;28;20060;-60
2022/12/25 11:51:16;;;;;;;2.55;1.77;;;11.10;86.90;;;;;;5034157;28;20029;-59
2022/12/25 11:53:54;;;;;;;2.22;1.92;;;11.10;87.50;;;;;;5034599;28;20111;-60
2022/12/25 11:56:24;;;;;;;3.75;2.33;;;11.10;86.90;;;;;;5038720;28;20029;-59
2022/12/25 11:59:12;;;;;;;4.35;2.63;;;11.10;87.50;;;;;;5044379;28;20052;-60
2022/12/25 12:01:48;;;;;;;5.38;2.67;;;11.20;86.90;;;;;;5039455;28;20024;-59
2022/12/25 12:04:37;;;;;;;6.93;3.05;;;11.20;87.00;;;;;;5045852;28;20025;-60
2022/12/25 12:07:20;;;;;;;5.38;2.95;;;11.20;86.90;;;;;;5043338;28;20112;-59
2022/12/25 12:10:04;;;;;;;2.53;1.88;;;11.20;86.90;;;;;;5044298;28;20042;-59
2022/12/25 12:12:35;;;;;;;3.53;1.80;;;11.20;86.80;;;;;;5042964;28;20078;-58
2022/12/25 12:15:32;;;;;;;3.97;1.73;;;11.20;87.00;;;;;;5045096;28;20807;-59
2022/12/25 12:18:22;;;;;;;1.23;1.08;;;11.30;87.00;;;;;;5040710;28;20041;-58
2022/12/25 12:21:08;;;;;;;3.08;1.40;;;11.30;86.80;;;;;;5047995;28;20030;-58
2022/12/25 12:23:47;;;;;;;1.65;1.23;;;11.30;86.90;;;;;;5044943;28;20036;-59
2022/12/25 12:26:36;;;;;;;1.58;1.17;;;11.30;87.10;;;;;;5045013;28;20032;-59
2022/12/25 12:29:04;;;;;;;1.13;1.02;;;11.30;87.00;;;;;;5049868;28;20040;-59
2022/12/25 12:31:42;;;;;;;3.65;1.95;;;11.30;87.10;;;;;;5046027;28;20025;-59
2022/12/25 12:34:26;;;;;;;1.58;1.25;;;11.30;87.10;;;;;;5045397;28;20163;-59
2022/12/25 12:37:03;;;;;;;1.83;1.38;;;11.30;87.10;;;;;;5043962;28;20468;-59
2022/12/25 12:39:40;;;;;;;2.53;1.42;;;11.30;87.00;;;;;;5042316;28;20038;-59
2022/12/25 12:42:19;;;;;;;2.83;1.88;;;11.30;87.10;;;;;;5045704;28;20051;-59
2022/12/25 12:44:48;;;;;;;2.15;1.38;;;11.30;87.20;;;;;;5046744;28;20022;-59
2022/12/25 12:47:41;;;;;;;1.60;1.05;;;11.30;87.30;;;;;;5047916;28;20033;-59
2022/12/25 12:50:28;;;;;;;2.08;1.20;;;11.30;87.20;;;;;;5043827;28;20053;-59
2022/12/25 12:52:53;;;;;;;1.73;1.23;;;11.30;87.20;;;;;;5052738;28;20392;-59
2022/12/25 12:55:33;;;;;;;1.13;0.93;;;11.30;87.40;;;;;;5050637;28;20051;-59
2022/12/25 12:58:01;;;;;;;2.47;1.58;;;11.30;87.30;;;;;;5043914;28;20071;-59
2022/12/25 13:00:43;;;;;;;1.52;1.08;;;11.30;87.30;;;;;;5039362;28;20442;-59
2022/12/25 13:03:31;;;;;;;1.52;0.98;;;11.30;87.30;;;;;;5044224;28;20351;-59
2022/12/25 13:06:24;;;;;;;1.75;1.48;;;11.40;87.30;;;;;;5048249;28;20533;-59
2022/12/25 13:09:05;;;;;;;1.30;1.20;;;11.40;87.20;;;;;;5049139;28;20057;-59
2022/12/25 13:11:38;;;;;;;1.58;1.10;;;11.40;87.30;;;;;;5037368;28;20029;-59
2022/12/25 13:14:04;;;;;;;2.00;1.27;;;11.40;87.50;;;;;;5046747;28;20029;-59
2022/12/25 13:16:39;;;;;;;3.53;1.63;;;11.40;87.50;;;;;;5042131;28;20090;-59
2022/12/25 13:19:27;;;;;;;2.33;1.65;;;11.40;87.40;;;;;;5040292;28;20028;-60
2022/12/25 13:21:58;;;;;;;1.83;1.42;;;11.40;87.40;;;;;;5038496;28;20036;-59
2022/12/25 13:24:27;;;;;;;2.77;1.33;;;11.40;87.40;;;;;;5036863;28;20028;-59
2022/12/25 13:26:53;;;;;;;1.52;1.42;;;11.40;87.40;;;;;;5039559;28;20037;-59
2022/12/25 13:29:22;;;;;;;1.63;1.52;;;11.40;87.50;;;;;;5046495;28;21562;-59
2022/12/25 13:31:48;;;;;;;2.30;1.85;;;11.50;87.50;;;;;;5044436;28;20029;-59
2022/12/25 13:34:20;;;;;;;2.15;1.77;;;11.40;87.40;;;;;;5043568;28;20037;-59
2022/12/25 13:36:47;;;;;;;3.63;1.30;;;11.50;87.50;;;;;;5037458;28;20361;-59
2022/12/25 13:39:16;;;;;;;1.75;1.63;;;11.50;87.50;;;;;;5042618;28;20068;-59
2022/12/25 13:44:42;;;;;;;2.05;1.73;;;11.40;87.50;;;;;;5042274;28;20035;-59
2022/12/25 13:47:25;;;;;;;1.45;1.30;;;11.50;87.50;;;;;;5046461;28;20123;-59
2022/12/25 13:49:54;;;;;;;3.13;1.50;;;11.50;87.50;;;;;;5045158;28;20029;-59
2022/12/25 13:52:32;;;;;;;2.67;2.00;;;11.50;87.50;;;;;;5048939;28;20033;-59
2022/12/25 13:55:02;;;;;;;3.30;1.92;;;11.50;87.50;;;;;;5049427;28;20051;-59
2022/12/25 13:57:40;;;;;;;2.17;1.95;;;11.50;87.50;;;;;;5051477;28;20083;-59
2022/12/25 14:00:15;;;;;;;2.80;1.83;;;11.50;87.40;;;;;;5050585;28;20045;-59
2022/12/25 14:02:41;;;;;;;3.75;2.08;;;11.50;87.50;;;;;;5051886;28;20159;-59
2022/12/25 14:05:30;;;;;;;1.88;1.67;;;11.50;87.50;;;;;;5051587;28;20372;-59
2022/12/25 14:07:59;;;;;;;4.82;2.30;;;11.50;87.40;;;;;;5051390;28;20082;-59
2022/12/25 14:10:29;;;;;;;2.45;1.77;;;11.50;87.50;;;;;;5049490;28;20490;-59
2022/12/25 14:12:58;;;;;;;2.47;1.75;;;11.50;87.60;;;;;;5051995;28;20021;-59
2022/12/25 14:15:30;;;;;;;2.78;1.65;;;11.50;87.70;;;;;;5050104;28;20013;-59
2022/12/25 14:17:57;;;;;;;3.25;1.98;;;11.50;87.80;;;;;;5041660;28;20112;-59
2022/12/25 14:20:32;;;;;;;2.47;1.85;;;11.50;87.80;;;;;;5045904;28;20025;-59
2022/12/25 14:22:59;;;;;;;4.43;2.63;;;11.50;87.80;;;;;;5049276;28;20443;-59
2022/12/25 14:25:31;;;;;;;2.53;2.13;;;11.50;87.80;;;;;;5047201;28;20029;-60
2022/12/25 14:27:57;;;;;;;1.98;1.85;;;11.50;87.80;;;;;;5047760;28;20033;-59
2022/12/25 14:30:28;;;;;;;2.75;1.67;;;11.50;87.80;;;;;;5048708;28;20078;-59
2022/12/25 14:32:54;;;;;;;2.22;2.00;;;11.50;87.80;;;;;;5050321;28;20048;-59
2022/12/25 14:35:20;;;;;;;3.63;2.38;;;11.50;87.70;;;;;;5043815;28;20045;-59
2022/12/25 14:37:49;;;;;;;2.08;1.63;;;11.50;87.80;;;;;;5049262;28;20136;-60
2022/12/25 14:40:18;;;;;;;2.08;1.65;;;11.50;87.70;;;;;;5049191;28;20040;-60
2022/12/25 14:43:04;;;;;;;2.35;1.90;;;11.50;87.70;;;;;;5047880;28;20107;-59
2022/12/25 14:45:37;;;;;;;3.22;2.38;;;11.60;87.70;;;;;;5049427;28;20091;-58
2022/12/25 14:48:17;;;;;;;2.58;2.35;;;11.50;87.70;;;;;;5049119;28;20036;-60